sensor_id;sensor_type;location;lat;lon;timestamp;P1;durP1;ratioP1;P2;durP2;ratioP2
17451;SDS011;8843;48.838;9.324;2023-07-31T00:01:56;3.97;;;2.37;;
17451;SDS011;8843;48.838;9.324;2023-07-31T00:04:23;1.93;;;1.30;;
17451;SDS011;8843;48.838;9.324;2023-07-31T00:06:49;2.90;;;1.90;;
17451;SDS011;8843;48.838;9.324;2023-07-31T00:09:16;4.93;;;1.70;;
17451;SDS011;8843;48.838;9.324;2023-07-31T00:11:45;4.73;;;1.97;;
17451;SDS011;8843;48.838;9.324;2023-07-31T00:14:11;4.57;;;1.70;;
17451;SDS011;8843;48.838;9.324;2023-07-31T00:16:38;4.07;;;1.90;;
17451;SDS011;8843;48.838;9.324;2023-07-31T00:19:05;3.77;;;1.60;;
17451;SDS011;8843;48.838;9.324;2023-07-31T00:21:32;6.03;;;1.80;;
17451;SDS011;8843;48.838;9.324;2023-07-31T00:23:59;3.60;;;2.00;;
17451;SDS011;8843;48.838;9.324;2023-07-31T00:26:26;4.67;;;1.73;;
17451;SDS011;8843;48.838;9.324;2023-07-31T00:28:54;5.10;;;1.73;;
17451;SDS011;8843;48.838;9.324;2023-07-31T00:31:21;1.93;;;1.50;;
17451;SDS011;8843;48.838;9.324;2023-07-31T00:33:48;5.23;;;2.10;;
17451;SDS011;8843;48.838;9.324;2023-07-31T00:36:15;2.97;;;1.50;;
17451;SDS011;8843;48.838;9.324;2023-07-31T00:38:42;2.53;;;1.50;;
17451;SDS011;8843;48.838;9.324;2023-07-31T00:41:09;3.27;;;1.73;;
17451;SDS011;8843;48.838;9.324;2023-07-31T00:43:36;6.13;;;2.20;;
17451;SDS011;8843;48.838;9.324;2023-07-31T00:46:04;2.87;;;1.87;;
17451;SDS011;8843;48.838;9.324;2023-07-31T00:48:32;2.73;;;1.50;;
17451;SDS011;8843;48.838;9.324;2023-07-31T00:50:59;3.13;;;1.60;;
17451;SDS011;8843;48.838;9.324;2023-07-31T00:53:27;2.63;;;1.50;;
17451;SDS011;8843;48.838;9.324;2023-07-31T00:55:54;2.60;;;1.50;;
17451;SDS011;8843;48.838;9.324;2023-07-31T00:58:21;2.73;;;1.43;;
17451;SDS011;8843;48.838;9.324;2023-07-31T01:00:48;2.90;;;1.33;;
17451;SDS011;8843;48.838;9.324;2023-07-31T01:03:17;1.90;;;1.23;;
17451;SDS011;8843;48.838;9.324;2023-07-31T01:05:48;9.87;;;2.23;;
17451;SDS011;8843;48.838;9.324;2023-07-31T01:08:24;2.47;;;1.43;;
17451;SDS011;8843;48.838;9.324;2023-07-31T01:11:00;3.77;;;1.73;;
17451;SDS011;8843;48.838;9.324;2023-07-31T01:13:33;3.77;;;1.70;;
17451;SDS011;8843;48.838;9.324;2023-07-31T01:16:01;2.17;;;1.63;;
17451;SDS011;8843;48.838;9.324;2023-07-31T01:18:29;2.30;;;1.40;;
17451;SDS011;8843;48.838;9.324;2023-07-31T01:20:58;3.90;;;2.10;;
17451;SDS011;8843;48.838;9.324;2023-07-31T01:23:45;3.93;;;1.63;;
17451;SDS011;8843;48.838;9.324;2023-07-31T01:26:42;3.80;;;1.47;;
17451;SDS011;8843;48.838;9.324;2023-07-31T01:29:20;2.37;;;1.90;;
17451;SDS011;8843;48.838;9.324;2023-07-31T01:31:53;3.60;;;2.17;;
17451;SDS011;8843;48.838;9.324;2023-07-31T01:34:21;2.63;;;1.70;;
17451;SDS011;8843;48.838;9.324;2023-07-31T01:36:49;3.03;;;1.53;;
17451;SDS011;8843;48.838;9.324;2023-07-31T01:39:16;2.60;;;1.70;;
17451;SDS011;8843;48.838;9.324;2023-07-31T01:41:44;5.30;;;1.70;;
17451;SDS011;8843;48.838;9.324;2023-07-31T01:44:11;3.20;;;1.50;;
17451;SDS011;8843;48.838;9.324;2023-07-31T01:46:38;5.73;;;1.87;;
17451;SDS011;8843;48.838;9.324;2023-07-31T01:49:05;2.30;;;1.60;;
17451;SDS011;8843;48.838;9.324;2023-07-31T01:51:32;4.87;;;1.80;;
17451;SDS011;8843;48.838;9.324;2023-07-31T01:53:59;2.73;;;1.67;;
17451;SDS011;8843;48.838;9.324;2023-07-31T01:56:26;2.40;;;1.60;;
17451;SDS011;8843;48.838;9.324;2023-07-31T01:58:54;2.07;;;1.50;;
17451;SDS011;8843;48.838;9.324;2023-07-31T02:01:21;2.00;;;1.60;;
17451;SDS011;8843;48.838;9.324;2023-07-31T02:03:48;2.90;;;1.70;;
17451;SDS011;8843;48.838;9.324;2023-07-31T02:06:15;3.87;;;1.93;;
17451;SDS011;8843;48.838;9.324;2023-07-31T02:08:42;2.40;;;1.50;;
17451;SDS011;8843;48.838;9.324;2023-07-31T02:11:09;4.50;;;1.80;;
17451;SDS011;8843;48.838;9.324;2023-07-31T02:13:36;4.93;;;2.20;;
17451;SDS011;8843;48.838;9.324;2023-07-31T02:16:04;1.73;;;1.27;;
17451;SDS011;8843;48.838;9.324;2023-07-31T02:18:31;3.93;;;1.90;;
17451;SDS011;8843;48.838;9.324;2023-07-31T02:20:58;3.13;;;1.43;;
17451;SDS011;8843;48.838;9.324;2023-07-31T02:23:25;2.93;;;1.40;;
17451;SDS011;8843;48.838;9.324;2023-07-31T02:25:52;4.33;;;1.40;;
17451;SDS011;8843;48.838;9.324;2023-07-31T02:28:18;2.43;;;1.67;;
17451;SDS011;8843;48.838;9.324;2023-07-31T02:30:45;3.67;;;1.50;;
17451;SDS011;8843;48.838;9.324;2023-07-31T02:33:14;4.07;;;1.80;;
17451;SDS011;8843;48.838;9.324;2023-07-31T02:35:41;2.50;;;1.60;;
17451;SDS011;8843;48.838;9.324;2023-07-31T02:38:08;2.90;;;1.40;;
17451;SDS011;8843;48.838;9.324;2023-07-31T02:40:35;3.63;;;1.43;;
17451;SDS011;8843;48.838;9.324;2023-07-31T02:43:02;2.97;;;1.87;;
17451;SDS011;8843;48.838;9.324;2023-07-31T02:45:29;4.00;;;1.77;;
17451;SDS011;8843;48.838;9.324;2023-07-31T02:47:55;1.70;;;1.57;;
17451;SDS011;8843;48.838;9.324;2023-07-31T02:50:24;2.73;;;1.67;;
17451;SDS011;8843;48.838;9.324;2023-07-31T02:52:50;5.97;;;1.50;;
17451;SDS011;8843;48.838;9.324;2023-07-31T02:55:17;3.50;;;1.80;;
17451;SDS011;8843;48.838;9.324;2023-07-31T02:57:44;2.80;;;1.87;;
17451;SDS011;8843;48.838;9.324;2023-07-31T03:00:12;1.60;;;1.50;;
17451;SDS011;8843;48.838;9.324;2023-07-31T03:02:39;2.63;;;1.70;;
17451;SDS011;8843;48.838;9.324;2023-07-31T03:05:06;3.13;;;1.70;;
17451;SDS011;8843;48.838;9.324;2023-07-31T03:07:35;3.97;;;1.57;;
17451;SDS011;8843;48.838;9.324;2023-07-31T03:10:02;3.20;;;1.93;;
17451;SDS011;8843;48.838;9.324;2023-07-31T03:12:29;5.20;;;1.70;;
17451;SDS011;8843;48.838;9.324;2023-07-31T03:14:56;5.87;;;1.60;;
17451;SDS011;8843;48.838;9.324;2023-07-31T03:17:22;3.77;;;1.63;;
17451;SDS011;8843;48.838;9.324;2023-07-31T03:19:49;2.83;;;1.77;;
17451;SDS011;8843;48.838;9.324;2023-07-31T03:22:16;2.67;;;1.53;;
17451;SDS011;8843;48.838;9.324;2023-07-31T03:24:44;2.60;;;1.57;;
17451;SDS011;8843;48.838;9.324;2023-07-31T03:27:11;3.70;;;1.97;;
17451;SDS011;8843;48.838;9.324;2023-07-31T03:29:38;3.50;;;1.77;;
17451;SDS011;8843;48.838;9.324;2023-07-31T03:32:05;5.60;;;1.60;;
17451;SDS011;8843;48.838;9.324;2023-07-31T03:34:32;3.77;;;1.67;;
17451;SDS011;8843;48.838;9.324;2023-07-31T03:36:59;2.90;;;2.00;;
17451;SDS011;8843;48.838;9.324;2023-07-31T03:39:26;2.37;;;1.80;;
17451;SDS011;8843;48.838;9.324;2023-07-31T03:41:54;4.40;;;1.70;;
17451;SDS011;8843;48.838;9.324;2023-07-31T03:44:21;3.53;;;1.63;;
17451;SDS011;8843;48.838;9.324;2023-07-31T03:46:48;3.27;;;1.67;;
17451;SDS011;8843;48.838;9.324;2023-07-31T03:49:15;3.13;;;1.70;;
17451;SDS011;8843;48.838;9.324;2023-07-31T03:51:42;2.23;;;1.87;;
17451;SDS011;8843;48.838;9.324;2023-07-31T03:54:09;2.87;;;1.50;;
17451;SDS011;8843;48.838;9.324;2023-07-31T03:56:38;4.27;;;1.80;;
17451;SDS011;8843;48.838;9.324;2023-07-31T03:59:06;3.27;;;1.90;;
17451;SDS011;8843;48.838;9.324;2023-07-31T04:01:33;4.67;;;1.67;;
17451;SDS011;8843;48.838;9.324;2023-07-31T04:04:00;3.90;;;1.80;;
17451;SDS011;8843;48.838;9.324;2023-07-31T04:06:26;2.77;;;2.03;;
17451;SDS011;8843;48.838;9.324;2023-07-31T04:08:53;3.17;;;1.87;;
17451;SDS011;8843;48.838;9.324;2023-07-31T04:11:20;3.23;;;1.83;;
17451;SDS011;8843;48.838;9.324;2023-07-31T04:13:47;4.07;;;1.83;;
17451;SDS011;8843;48.838;9.324;2023-07-31T04:16:15;3.03;;;1.90;;
17451;SDS011;8843;48.838;9.324;2023-07-31T04:18:42;5.97;;;1.73;;
17451;SDS011;8843;48.838;9.324;2023-07-31T04:21:09;3.10;;;1.93;;
17451;SDS011;8843;48.838;9.324;2023-07-31T04:23:36;2.60;;;1.87;;
17451;SDS011;8843;48.838;9.324;2023-07-31T04:26:04;2.73;;;1.87;;
17451;SDS011;8843;48.838;9.324;2023-07-31T04:28:30;4.63;;;1.97;;
17451;SDS011;8843;48.838;9.324;2023-07-31T04:30:57;2.13;;;1.97;;
17451;SDS011;8843;48.838;9.324;2023-07-31T04:33:26;3.90;;;1.70;;
17451;SDS011;8843;48.838;9.324;2023-07-31T04:35:53;3.63;;;1.80;;
17451;SDS011;8843;48.838;9.324;2023-07-31T04:38:20;1.83;;;1.73;;
17451;SDS011;8843;48.838;9.324;2023-07-31T04:40:48;5.50;;;1.73;;
17451;SDS011;8843;48.838;9.324;2023-07-31T04:43:15;3.40;;;1.70;;
17451;SDS011;8843;48.838;9.324;2023-07-31T04:45:42;2.63;;;1.80;;
17451;SDS011;8843;48.838;9.324;2023-07-31T04:48:11;4.03;;;1.57;;
17451;SDS011;8843;48.838;9.324;2023-07-31T04:50:39;4.57;;;1.87;;
17451;SDS011;8843;48.838;9.324;2023-07-31T04:53:06;2.07;;;1.63;;
17451;SDS011;8843;48.838;9.324;2023-07-31T04:55:33;4.37;;;1.70;;
17451;SDS011;8843;48.838;9.324;2023-07-31T04:58:00;2.33;;;1.80;;
17451;SDS011;8843;48.838;9.324;2023-07-31T05:00:27;2.63;;;1.70;;
17451;SDS011;8843;48.838;9.324;2023-07-31T05:02:54;3.33;;;1.63;;
17451;SDS011;8843;48.838;9.324;2023-07-31T05:05:20;4.03;;;2.07;;
17451;SDS011;8843;48.838;9.324;2023-07-31T05:07:49;3.20;;;1.80;;
17451;SDS011;8843;48.838;9.324;2023-07-31T05:10:15;2.30;;;1.73;;
17451;SDS011;8843;48.838;9.324;2023-07-31T05:12:42;2.07;;;1.50;;
17451;SDS011;8843;48.838;9.324;2023-07-31T05:15:09;4.03;;;2.30;;
17451;SDS011;8843;48.838;9.324;2023-07-31T05:17:36;2.07;;;1.67;;
17451;SDS011;8843;48.838;9.324;2023-07-31T05:20:03;4.80;;;1.90;;
17451;SDS011;8843;48.838;9.324;2023-07-31T05:22:31;3.60;;;1.90;;
17451;SDS011;8843;48.838;9.324;2023-07-31T05:24:59;3.50;;;1.77;;
17451;SDS011;8843;48.838;9.324;2023-07-31T05:27:26;2.60;;;1.67;;
17451;SDS011;8843;48.838;9.324;2023-07-31T05:29:53;4.27;;;2.20;;
17451;SDS011;8843;48.838;9.324;2023-07-31T05:32:20;2.90;;;1.67;;
17451;SDS011;8843;48.838;9.324;2023-07-31T05:34:46;2.97;;;1.83;;
17451;SDS011;8843;48.838;9.324;2023-07-31T05:37:13;2.63;;;1.93;;
17451;SDS011;8843;48.838;9.324;2023-07-31T05:39:40;4.83;;;1.90;;
17451;SDS011;8843;48.838;9.324;2023-07-31T05:42:09;4.43;;;1.80;;
17451;SDS011;8843;48.838;9.324;2023-07-31T05:44:41;4.43;;;2.03;;
17451;SDS011;8843;48.838;9.324;2023-07-31T05:47:23;2.83;;;1.70;;
17451;SDS011;8843;48.838;9.324;2023-07-31T05:49:50;5.13;;;1.77;;
17451;SDS011;8843;48.838;9.324;2023-07-31T05:52:17;3.07;;;2.00;;
17451;SDS011;8843;48.838;9.324;2023-07-31T05:54:45;2.63;;;2.00;;
17451;SDS011;8843;48.838;9.324;2023-07-31T05:57:13;2.30;;;1.63;;
17451;SDS011;8843;48.838;9.324;2023-07-31T05:59:40;4.77;;;1.97;;
17451;SDS011;8843;48.838;9.324;2023-07-31T06:02:07;3.57;;;1.93;;
17451;SDS011;8843;48.838;9.324;2023-07-31T06:04:34;3.00;;;1.77;;
17451;SDS011;8843;48.838;9.324;2023-07-31T06:07:01;3.40;;;2.27;;
17451;SDS011;8843;48.838;9.324;2023-07-31T06:09:28;4.83;;;2.20;;
17451;SDS011;8843;48.838;9.324;2023-07-31T06:11:55;6.40;;;2.30;;
17451;SDS011;8843;48.838;9.324;2023-07-31T06:14:23;3.43;;;2.10;;
17451;SDS011;8843;48.838;9.324;2023-07-31T06:16:50;3.57;;;1.77;;
17451;SDS011;8843;48.838;9.324;2023-07-31T06:19:17;5.67;;;2.73;;
17451;SDS011;8843;48.838;9.324;2023-07-31T06:21:45;5.13;;;1.77;;
17451;SDS011;8843;48.838;9.324;2023-07-31T06:24:12;5.80;;;1.67;;
17451;SDS011;8843;48.838;9.324;2023-07-31T06:26:44;3.47;;;1.97;;
17451;SDS011;8843;48.838;9.324;2023-07-31T06:29:11;3.97;;;1.67;;
17451;SDS011;8843;48.838;9.324;2023-07-31T06:31:39;4.83;;;2.63;;
17451;SDS011;8843;48.838;9.324;2023-07-31T06:34:07;4.60;;;2.00;;
17451;SDS011;8843;48.838;9.324;2023-07-31T06:36:34;3.80;;;2.20;;
17451;SDS011;8843;48.838;9.324;2023-07-31T06:39:01;3.10;;;1.83;;
17451;SDS011;8843;48.838;9.324;2023-07-31T06:41:28;3.37;;;1.80;;
17451;SDS011;8843;48.838;9.324;2023-07-31T06:43:55;2.20;;;1.80;;
17451;SDS011;8843;48.838;9.324;2023-07-31T06:46:22;2.90;;;2.17;;
17451;SDS011;8843;48.838;9.324;2023-07-31T06:48:50;2.00;;;1.83;;
17451;SDS011;8843;48.838;9.324;2023-07-31T06:51:17;3.97;;;2.20;;
17451;SDS011;8843;48.838;9.324;2023-07-31T06:53:44;3.43;;;2.20;;
17451;SDS011;8843;48.838;9.324;2023-07-31T06:56:11;4.70;;;2.03;;
17451;SDS011;8843;48.838;9.324;2023-07-31T06:58:38;3.47;;;1.73;;
17451;SDS011;8843;48.838;9.324;2023-07-31T07:01:05;3.03;;;2.13;;
17451;SDS011;8843;48.838;9.324;2023-07-31T07:03:32;2.07;;;1.87;;
17451;SDS011;8843;48.838;9.324;2023-07-31T07:06:00;4.03;;;1.90;;
17451;SDS011;8843;48.838;9.324;2023-07-31T07:08:27;4.83;;;1.80;;
17451;SDS011;8843;48.838;9.324;2023-07-31T07:10:54;4.50;;;2.33;;
17451;SDS011;8843;48.838;9.324;2023-07-31T07:13:21;3.90;;;2.13;;
17451;SDS011;8843;48.838;9.324;2023-07-31T07:15:48;2.37;;;1.47;;
17451;SDS011;8843;48.838;9.324;2023-07-31T07:18:15;3.93;;;2.10;;
17451;SDS011;8843;48.838;9.324;2023-07-31T07:20:45;3.53;;;2.00;;
17451;SDS011;8843;48.838;9.324;2023-07-31T07:23:14;3.87;;;2.03;;
17451;SDS011;8843;48.838;9.324;2023-07-31T07:25:41;4.97;;;2.00;;
17451;SDS011;8843;48.838;9.324;2023-07-31T07:28:08;2.83;;;2.07;;
17451;SDS011;8843;48.838;9.324;2023-07-31T07:30:35;4.37;;;2.10;;
17451;SDS011;8843;48.838;9.324;2023-07-31T07:33:02;3.03;;;1.90;;
17451;SDS011;8843;48.838;9.324;2023-07-31T07:35:29;3.73;;;2.47;;
17451;SDS011;8843;48.838;9.324;2023-07-31T07:37:56;3.83;;;1.83;;
17451;SDS011;8843;48.838;9.324;2023-07-31T07:40:24;2.50;;;2.00;;
17451;SDS011;8843;48.838;9.324;2023-07-31T07:42:51;5.97;;;2.43;;
17451;SDS011;8843;48.838;9.324;2023-07-31T07:45:18;4.83;;;2.03;;
17451;SDS011;8843;48.838;9.324;2023-07-31T07:47:45;4.13;;;1.80;;
17451;SDS011;8843;48.838;9.324;2023-07-31T07:50:12;4.27;;;2.47;;
17451;SDS011;8843;48.838;9.324;2023-07-31T07:52:39;4.63;;;2.20;;
17451;SDS011;8843;48.838;9.324;2023-07-31T07:55:06;3.73;;;1.90;;
17451;SDS011;8843;48.838;9.324;2023-07-31T07:57:34;4.70;;;2.10;;
17451;SDS011;8843;48.838;9.324;2023-07-31T08:00:02;6.23;;;2.37;;
17451;SDS011;8843;48.838;9.324;2023-07-31T08:02:29;3.97;;;2.13;;
17451;SDS011;8843;48.838;9.324;2023-07-31T08:04:56;8.77;;;2.17;;
17451;SDS011;8843;48.838;9.324;2023-07-31T08:07:23;3.90;;;1.93;;
17451;SDS011;8843;48.838;9.324;2023-07-31T08:09:50;3.73;;;1.93;;
17451;SDS011;8843;48.838;9.324;2023-07-31T08:12:16;4.80;;;2.10;;
17451;SDS011;8843;48.838;9.324;2023-07-31T08:14:45;4.90;;;1.97;;
17451;SDS011;8843;48.838;9.324;2023-07-31T08:17:12;3.60;;;2.43;;
17451;SDS011;8843;48.838;9.324;2023-07-31T08:19:38;3.83;;;2.00;;
17451;SDS011;8843;48.838;9.324;2023-07-31T08:22:05;5.00;;;2.37;;
17451;SDS011;8843;48.838;9.324;2023-07-31T08:24:32;2.70;;;1.97;;
17451;SDS011;8843;48.838;9.324;2023-07-31T08:26:59;3.90;;;2.00;;
17451;SDS011;8843;48.838;9.324;2023-07-31T08:29:26;5.63;;;2.20;;
17451;SDS011;8843;48.838;9.324;2023-07-31T08:31:54;5.20;;;2.10;;
17451;SDS011;8843;48.838;9.324;2023-07-31T08:34:21;4.53;;;2.07;;
17451;SDS011;8843;48.838;9.324;2023-07-31T08:36:48;5.50;;;2.00;;
17451;SDS011;8843;48.838;9.324;2023-07-31T08:39:15;3.07;;;2.30;;
17451;SDS011;8843;48.838;9.324;2023-07-31T08:41:42;5.17;;;2.53;;
17451;SDS011;8843;48.838;9.324;2023-07-31T08:44:09;5.20;;;2.23;;
17451;SDS011;8843;48.838;9.324;2023-07-31T08:46:37;4.27;;;2.10;;
17451;SDS011;8843;48.838;9.324;2023-07-31T08:49:06;6.10;;;2.20;;
17451;SDS011;8843;48.838;9.324;2023-07-31T08:51:34;6.97;;;2.60;;
17451;SDS011;8843;48.838;9.324;2023-07-31T08:54:01;5.87;;;2.30;;
17451;SDS011;8843;48.838;9.324;2023-07-31T08:56:29;6.83;;;2.27;;
17451;SDS011;8843;48.838;9.324;2023-07-31T08:58:58;4.43;;;2.27;;
17451;SDS011;8843;48.838;9.324;2023-07-31T09:01:28;4.67;;;2.23;;
17451;SDS011;8843;48.838;9.324;2023-07-31T09:03:57;3.57;;;2.40;;
17451;SDS011;8843;48.838;9.324;2023-07-31T09:06:28;5.23;;;2.47;;
17451;SDS011;8843;48.838;9.324;2023-07-31T09:08:58;4.23;;;2.47;;
17451;SDS011;8843;48.838;9.324;2023-07-31T09:11:25;3.77;;;1.93;;
17451;SDS011;8843;48.838;9.324;2023-07-31T09:13:53;7.67;;;2.13;;
17451;SDS011;8843;48.838;9.324;2023-07-31T09:16:26;2.47;;;1.90;;
17451;SDS011;8843;48.838;9.324;2023-07-31T09:18:55;4.33;;;2.10;;
17451;SDS011;8843;48.838;9.324;2023-07-31T09:21:23;4.43;;;2.17;;
17451;SDS011;8843;48.838;9.324;2023-07-31T09:23:54;5.73;;;2.40;;
17451;SDS011;8843;48.838;9.324;2023-07-31T09:26:30;5.07;;;2.67;;
17451;SDS011;8843;48.838;9.324;2023-07-31T09:28:58;7.13;;;2.40;;
17451;SDS011;8843;48.838;9.324;2023-07-31T09:31:32;8.10;;;2.87;;
17451;SDS011;8843;48.838;9.324;2023-07-31T09:34:04;4.67;;;2.23;;
17451;SDS011;8843;48.838;9.324;2023-07-31T09:36:30;3.53;;;2.10;;
17451;SDS011;8843;48.838;9.324;2023-07-31T09:39:02;4.73;;;2.40;;
17451;SDS011;8843;48.838;9.324;2023-07-31T09:41:29;5.43;;;2.40;;
17451;SDS011;8843;48.838;9.324;2023-07-31T09:43:56;5.13;;;2.43;;
17451;SDS011;8843;48.838;9.324;2023-07-31T09:46:23;4.00;;;2.47;;
17451;SDS011;8843;48.838;9.324;2023-07-31T09:48:54;7.43;;;2.27;;
17451;SDS011;8843;48.838;9.324;2023-07-31T09:51:34;5.97;;;2.20;;
17451;SDS011;8843;48.838;9.324;2023-07-31T09:54:05;3.83;;;2.40;;
17451;SDS011;8843;48.838;9.324;2023-07-31T09:56:36;4.90;;;2.40;;
17451;SDS011;8843;48.838;9.324;2023-07-31T09:59:06;6.77;;;2.30;;
17451;SDS011;8843;48.838;9.324;2023-07-31T10:01:36;3.03;;;2.03;;
17451;SDS011;8843;48.838;9.324;2023-07-31T10:04:04;7.17;;;3.13;;
17451;SDS011;8843;48.838;9.324;2023-07-31T10:06:33;3.40;;;2.27;;
17451;SDS011;8843;48.838;9.324;2023-07-31T10:09:01;4.87;;;2.53;;
17451;SDS011;8843;48.838;9.324;2023-07-31T10:11:33;5.07;;;2.03;;
17451;SDS011;8843;48.838;9.324;2023-07-31T10:14:07;4.13;;;2.17;;
17451;SDS011;8843;48.838;9.324;2023-07-31T10:16:38;4.57;;;2.00;;
17451;SDS011;8843;48.838;9.324;2023-07-31T10:19:06;5.93;;;2.43;;
17451;SDS011;8843;48.838;9.324;2023-07-31T10:21:33;6.07;;;2.60;;
17451;SDS011;8843;48.838;9.324;2023-07-31T10:24:02;6.83;;;2.57;;
17451;SDS011;8843;48.838;9.324;2023-07-31T10:26:30;5.63;;;2.33;;
17451;SDS011;8843;48.838;9.324;2023-07-31T10:28:59;7.23;;;2.53;;
17451;SDS011;8843;48.838;9.324;2023-07-31T10:31:26;4.20;;;2.67;;
17451;SDS011;8843;48.838;9.324;2023-07-31T10:33:54;4.40;;;2.00;;
17451;SDS011;8843;48.838;9.324;2023-07-31T10:36:22;3.97;;;2.27;;
17451;SDS011;8843;48.838;9.324;2023-07-31T10:38:49;6.30;;;2.80;;
17451;SDS011;8843;48.838;9.324;2023-07-31T10:41:16;5.13;;;2.33;;
17451;SDS011;8843;48.838;9.324;2023-07-31T10:43:46;3.97;;;2.10;;
17451;SDS011;8843;48.838;9.324;2023-07-31T10:46:13;3.47;;;2.10;;
17451;SDS011;8843;48.838;9.324;2023-07-31T10:48:41;4.90;;;2.50;;
17451;SDS011;8843;48.838;9.324;2023-07-31T10:51:08;3.00;;;2.17;;
17451;SDS011;8843;48.838;9.324;2023-07-31T10:53:37;5.43;;;2.53;;
17451;SDS011;8843;48.838;9.324;2023-07-31T10:56:05;5.93;;;2.47;;
17451;SDS011;8843;48.838;9.324;2023-07-31T10:58:34;4.77;;;2.43;;
17451;SDS011;8843;48.838;9.324;2023-07-31T11:01:04;3.10;;;2.60;;
17451;SDS011;8843;48.838;9.324;2023-07-31T11:03:41;5.70;;;2.70;;
17451;SDS011;8843;48.838;9.324;2023-07-31T11:06:09;3.73;;;2.40;;
17451;SDS011;8843;48.838;9.324;2023-07-31T11:08:41;4.37;;;2.77;;
17451;SDS011;8843;48.838;9.324;2023-07-31T11:11:09;7.03;;;2.83;;
17451;SDS011;8843;48.838;9.324;2023-07-31T11:13:41;4.07;;;2.50;;
17451;SDS011;8843;48.838;9.324;2023-07-31T11:16:11;5.93;;;2.67;;
17451;SDS011;8843;48.838;9.324;2023-07-31T11:18:39;3.87;;;2.00;;
17451;SDS011;8843;48.838;9.324;2023-07-31T11:21:07;3.93;;;2.17;;
17451;SDS011;8843;48.838;9.324;2023-07-31T11:23:36;3.60;;;2.50;;
17451;SDS011;8843;48.838;9.324;2023-07-31T11:26:04;2.93;;;2.53;;
17451;SDS011;8843;48.838;9.324;2023-07-31T11:28:32;3.60;;;2.33;;
17451;SDS011;8843;48.838;9.324;2023-07-31T11:31:00;4.20;;;2.50;;
17451;SDS011;8843;48.838;9.324;2023-07-31T11:33:28;5.43;;;3.07;;
17451;SDS011;8843;48.838;9.324;2023-07-31T11:35:55;3.70;;;2.13;;
17451;SDS011;8843;48.838;9.324;2023-07-31T11:38:23;7.30;;;2.50;;
17451;SDS011;8843;48.838;9.324;2023-07-31T11:40:51;4.30;;;2.50;;
17451;SDS011;8843;48.838;9.324;2023-07-31T11:43:19;3.47;;;2.30;;
17451;SDS011;8843;48.838;9.324;2023-07-31T11:45:47;4.37;;;2.37;;
17451;SDS011;8843;48.838;9.324;2023-07-31T11:48:21;4.30;;;2.90;;
17451;SDS011;8843;48.838;9.324;2023-07-31T11:50:51;5.03;;;2.50;;
17451;SDS011;8843;48.838;9.324;2023-07-31T11:53:21;3.83;;;2.43;;
17451;SDS011;8843;48.838;9.324;2023-07-31T11:55:52;6.50;;;2.80;;
17451;SDS011;8843;48.838;9.324;2023-07-31T11:58:20;4.83;;;2.80;;
17451;SDS011;8843;48.838;9.324;2023-07-31T12:00:47;4.80;;;2.87;;
17451;SDS011;8843;48.838;9.324;2023-07-31T12:03:15;3.90;;;2.13;;
17451;SDS011;8843;48.838;9.324;2023-07-31T12:05:42;4.47;;;2.70;;
17451;SDS011;8843;48.838;9.324;2023-07-31T12:08:11;4.20;;;2.00;;
17451;SDS011;8843;48.838;9.324;2023-07-31T12:10:38;3.87;;;2.47;;
17451;SDS011;8843;48.838;9.324;2023-07-31T12:13:07;4.80;;;2.60;;
17451;SDS011;8843;48.838;9.324;2023-07-31T12:15:38;6.03;;;2.73;;
17451;SDS011;8843;48.838;9.324;2023-07-31T12:18:07;5.57;;;2.67;;
17451;SDS011;8843;48.838;9.324;2023-07-31T12:20:39;4.33;;;2.63;;
17451;SDS011;8843;48.838;9.324;2023-07-31T12:23:13;4.77;;;2.90;;
17451;SDS011;8843;48.838;9.324;2023-07-31T12:25:41;3.57;;;2.60;;
17451;SDS011;8843;48.838;9.324;2023-07-31T12:28:08;2.53;;;2.23;;
17451;SDS011;8843;48.838;9.324;2023-07-31T12:30:37;4.93;;;2.53;;
17451;SDS011;8843;48.838;9.324;2023-07-31T12:33:06;5.17;;;2.37;;
17451;SDS011;8843;48.838;9.324;2023-07-31T12:35:36;4.43;;;2.40;;
17451;SDS011;8843;48.838;9.324;2023-07-31T12:38:04;6.20;;;2.87;;
17451;SDS011;8843;48.838;9.324;2023-07-31T12:40:32;5.33;;;2.30;;
17451;SDS011;8843;48.838;9.324;2023-07-31T12:43:02;3.67;;;2.77;;
17451;SDS011;8843;48.838;9.324;2023-07-31T12:45:29;6.03;;;2.20;;
17451;SDS011;8843;48.838;9.324;2023-07-31T12:47:56;3.93;;;2.30;;
17451;SDS011;8843;48.838;9.324;2023-07-31T12:50:24;3.67;;;2.60;;
17451;SDS011;8843;48.838;9.324;2023-07-31T12:52:51;4.93;;;2.40;;
17451;SDS011;8843;48.838;9.324;2023-07-31T12:55:19;2.93;;;2.40;;
17451;SDS011;8843;48.838;9.324;2023-07-31T12:57:47;5.83;;;2.50;;
17451;SDS011;8843;48.838;9.324;2023-07-31T13:00:14;4.80;;;2.90;;
17451;SDS011;8843;48.838;9.324;2023-07-31T13:02:41;5.67;;;2.67;;
17451;SDS011;8843;48.838;9.324;2023-07-31T13:05:08;5.53;;;2.50;;
17451;SDS011;8843;48.838;9.324;2023-07-31T13:07:35;3.60;;;2.53;;
17451;SDS011;8843;48.838;9.324;2023-07-31T13:10:03;3.40;;;2.60;;
17451;SDS011;8843;48.838;9.324;2023-07-31T13:12:31;4.50;;;2.50;;
17451;SDS011;8843;48.838;9.324;2023-07-31T13:14:59;4.57;;;2.40;;
17451;SDS011;8843;48.838;9.324;2023-07-31T13:17:26;3.80;;;2.50;;
17451;SDS011;8843;48.838;9.324;2023-07-31T13:19:53;6.03;;;2.20;;
17451;SDS011;8843;48.838;9.324;2023-07-31T13:22:20;3.03;;;2.33;;
17451;SDS011;8843;48.838;9.324;2023-07-31T13:24:47;4.53;;;2.53;;
17451;SDS011;8843;48.838;9.324;2023-07-31T13:27:13;6.57;;;2.40;;
17451;SDS011;8843;48.838;9.324;2023-07-31T13:29:43;5.30;;;2.23;;
17451;SDS011;8843;48.838;9.324;2023-07-31T13:32:12;2.70;;;2.43;;
17451;SDS011;8843;48.838;9.324;2023-07-31T13:34:38;5.57;;;2.60;;
17451;SDS011;8843;48.838;9.324;2023-07-31T13:37:05;3.80;;;2.50;;
17451;SDS011;8843;48.838;9.324;2023-07-31T13:39:32;3.17;;;1.97;;
17451;SDS011;8843;48.838;9.324;2023-07-31T13:41:59;3.40;;;2.30;;
17451;SDS011;8843;48.838;9.324;2023-07-31T13:44:26;3.90;;;2.77;;
17451;SDS011;8843;48.838;9.324;2023-07-31T13:46:53;3.87;;;2.40;;
17451;SDS011;8843;48.838;9.324;2023-07-31T13:49:21;3.63;;;2.40;;
17451;SDS011;8843;48.838;9.324;2023-07-31T13:51:48;3.00;;;2.40;;
17451;SDS011;8843;48.838;9.324;2023-07-31T13:54:15;4.93;;;2.57;;
17451;SDS011;8843;48.838;9.324;2023-07-31T13:56:43;6.10;;;2.83;;
17451;SDS011;8843;48.838;9.324;2023-07-31T13:59:10;4.37;;;2.67;;
17451;SDS011;8843;48.838;9.324;2023-07-31T14:01:38;4.43;;;2.53;;
17451;SDS011;8843;48.838;9.324;2023-07-31T14:04:05;4.23;;;2.60;;
17451;SDS011;8843;48.838;9.324;2023-07-31T14:06:33;5.70;;;2.83;;
17451;SDS011;8843;48.838;9.324;2023-07-31T14:09:00;3.67;;;2.57;;
17451;SDS011;8843;48.838;9.324;2023-07-31T14:11:27;4.83;;;2.57;;
17451;SDS011;8843;48.838;9.324;2023-07-31T14:13:54;8.63;;;2.53;;
17451;SDS011;8843;48.838;9.324;2023-07-31T14:16:22;4.27;;;2.50;;
17451;SDS011;8843;48.838;9.324;2023-07-31T14:18:49;4.20;;;2.33;;
17451;SDS011;8843;48.838;9.324;2023-07-31T14:21:18;3.40;;;2.63;;
17451;SDS011;8843;48.838;9.324;2023-07-31T14:23:46;3.33;;;2.33;;
17451;SDS011;8843;48.838;9.324;2023-07-31T14:26:13;4.53;;;2.27;;
17451;SDS011;8843;48.838;9.324;2023-07-31T14:28:40;2.87;;;2.50;;
17451;SDS011;8843;48.838;9.324;2023-07-31T14:31:07;4.83;;;2.23;;
17451;SDS011;8843;48.838;9.324;2023-07-31T14:33:34;3.20;;;2.30;;
17451;SDS011;8843;48.838;9.324;2023-07-31T14:36:01;5.27;;;3.10;;
17451;SDS011;8843;48.838;9.324;2023-07-31T14:38:28;3.40;;;2.10;;
17451;SDS011;8843;48.838;9.324;2023-07-31T14:40:57;2.80;;;2.30;;
17451;SDS011;8843;48.838;9.324;2023-07-31T14:43:23;4.93;;;2.60;;
17451;SDS011;8843;48.838;9.324;2023-07-31T14:45:50;3.27;;;2.47;;
17451;SDS011;8843;48.838;9.324;2023-07-31T14:48:18;2.47;;;2.27;;
17451;SDS011;8843;48.838;9.324;2023-07-31T14:50:45;3.97;;;2.27;;
17451;SDS011;8843;48.838;9.324;2023-07-31T14:53:12;4.67;;;2.27;;
17451;SDS011;8843;48.838;9.324;2023-07-31T14:55:39;3.63;;;2.90;;
17451;SDS011;8843;48.838;9.324;2023-07-31T14:58:07;4.33;;;2.30;;
17451;SDS011;8843;48.838;9.324;2023-07-31T15:00:36;3.80;;;2.20;;
17451;SDS011;8843;48.838;9.324;2023-07-31T15:03:03;4.63;;;2.63;;
17451;SDS011;8843;48.838;9.324;2023-07-31T15:05:29;4.17;;;2.33;;